createdAt,value
2023-05-17T00:01:43.338Z,100.00
2023-05-17T00:04:10.531Z,100.00
2023-05-17T00:06:37.286Z,100.00
2023-05-17T00:09:04.162Z,100.00
2023-05-17T00:11:30.867Z,100.00
2023-05-17T00:13:57.579Z,100.00
2023-05-17T00:16:24.339Z,100.00
2023-05-17T00:18:51.471Z,100.00
2023-05-17T00:21:18.330Z,100.00
2023-05-17T00:23:45.597Z,100.00
2023-05-17T00:26:13.753Z,100.00
2023-05-17T00:28:40.569Z,100.00
2023-05-17T00:31:07.356Z,100.00
2023-05-17T00:33:34.077Z,100.00
2023-05-17T00:36:00.872Z,100.00
2023-05-17T00:38:27.643Z,100.00
2023-05-17T00:40:54.679Z,100.00
2023-05-17T00:43:21.502Z,100.00
2023-05-17T00:45:50.281Z,100.00
2023-05-17T00:48:17.194Z,100.00
2023-05-17T00:50:44.193Z,100.00
2023-05-17T00:53:11.357Z,100.00
2023-05-17T00:55:38.107Z,100.00
2023-05-17T00:58:04.818Z,100.00
2023-05-17T01:00:31.711Z,100.00
2023-05-17T01:02:58.493Z,100.00
2023-05-17T01:05:28.699Z,100.00
2023-05-17T01:07:55.908Z,100.00
2023-05-17T01:10:25.048Z,100.00
2023-05-17T01:13:05.139Z,100.00
2023-05-17T01:15:33.162Z,100.00
2023-05-17T01:18:15.398Z,100.00
2023-05-17T01:20:43.766Z,100.00
2023-05-17T01:23:26.975Z,100.00
2023-05-17T01:26:06.214Z,100.00
2023-05-17T01:28:33.120Z,100.00
2023-05-17T01:31:01.766Z,100.00
2023-05-17T01:33:29.984Z,100.00
2023-05-17T01:35:56.764Z,100.00
2023-05-17T01:38:23.541Z,100.00
2023-05-17T01:41:19.815Z,100.00
2023-05-17T01:44:01.883Z,100.00
2023-05-17T01:46:30.524Z,100.00
2023-05-17T01:49:15.260Z,100.00
2023-05-17T01:51:48.164Z,100.00
2023-05-17T01:54:15.378Z,100.00
2023-05-17T01:56:43.747Z,100.00
2023-05-17T01:59:11.440Z,100.00
2023-05-17T02:01:38.687Z,100.00
2023-05-17T02:04:06.000Z,100.00
2023-05-17T02:06:32.811Z,100.00
2023-05-17T02:09:02.609Z,100.00
2023-05-17T02:11:29.541Z,100.00
2023-05-17T02:13:56.406Z,100.00
2023-05-17T02:16:23.167Z,100.00
2023-05-17T02:18:50.139Z,100.00
2023-05-17T02:21:18.550Z,100.00
2023-05-17T02:23:46.085Z,100.00
2023-05-17T02:26:12.860Z,100.00
2023-05-17T02:28:39.613Z,100.00
2023-05-17T02:31:08.177Z,100.00
2023-05-17T02:33:35.444Z,100.00
2023-05-17T02:36:02.251Z,100.00
2023-05-17T02:38:29.143Z,100.00
2023-05-17T02:40:55.916Z,100.00
2023-05-17T02:43:24.335Z,100.00
2023-05-17T02:45:51.233Z,100.00
2023-05-17T02:48:18.003Z,100.00
2023-05-17T02:50:44.778Z,100.00
2023-05-17T02:53:11.548Z,100.00
2023-05-17T02:55:38.354Z,100.00
2023-05-17T02:58:05.194Z,100.00
2023-05-17T03:00:32.704Z,100.00
2023-05-17T03:02:59.587Z,100.00
2023-05-17T03:05:26.716Z,100.00
2023-05-17T03:07:53.692Z,100.00
2023-05-17T03:10:20.573Z,100.00
2023-05-17T03:12:47.511Z,100.00
2023-05-17T03:15:17.198Z,100.00
2023-05-17T03:17:44.206Z,100.00
2023-05-17T03:20:12.093Z,100.00
2023-05-17T03:22:39.109Z,100.00
2023-05-17T03:25:06.833Z,100.00
2023-05-17T03:27:33.963Z,100.00
2023-05-17T03:30:01.831Z,100.00
2023-05-17T03:32:29.259Z,100.00
2023-05-17T03:34:56.036Z,100.00
2023-05-17T03:37:23.158Z,100.00
2023-05-17T03:39:49.975Z,100.00
2023-05-17T03:42:16.845Z,100.00
2023-05-17T03:44:44.130Z,100.00
2023-05-17T03:47:11.721Z,100.00
2023-05-17T03:49:38.581Z,100.00
2023-05-17T03:52:05.487Z,100.00
2023-05-17T03:54:32.548Z,100.00
2023-05-17T03:57:00.228Z,100.00
2023-05-17T03:59:27.066Z,100.00
2023-05-17T04:01:53.966Z,100.00
2023-05-17T04:04:20.877Z,100.00
2023-05-17T04:06:47.632Z,100.00
2023-05-17T04:09:15.622Z,100.00
2023-05-17T04:11:42.733Z,100.00
2023-05-17T04:14:10.682Z,100.00
2023-05-17T04:16:37.563Z,100.00
2023-05-17T04:19:04.624Z,100.00
2023-05-17T04:21:31.498Z,100.00
2023-05-17T04:23:58.274Z,100.00
2023-05-17T04:26:26.889Z,100.00
2023-05-17T04:28:53.641Z,100.00
2023-05-17T04:31:22.410Z,100.00
2023-05-17T04:33:49.381Z,100.00
2023-05-17T04:36:17.610Z,100.00
2023-05-17T04:38:44.531Z,100.00
2023-05-17T04:41:13.733Z,100.00
2023-05-17T04:43:42.048Z,100.00
2023-05-17T04:46:13.048Z,100.00
2023-05-17T04:48:40.049Z,100.00
2023-05-17T04:51:07.388Z,100.00
2023-05-17T04:53:34.633Z,100.00
2023-05-17T04:56:06.642Z,100.00
2023-05-17T04:58:33.443Z,100.00
2023-05-17T05:01:00.644Z,100.00
2023-05-17T05:03:27.597Z,100.00
2023-05-17T05:05:54.507Z,100.00
2023-05-17T05:08:21.518Z,100.00
2023-05-17T05:10:48.273Z,100.00
2023-05-17T05:13:16.007Z,100.00
2023-05-17T05:15:43.066Z,100.00
2023-05-17T05:18:09.927Z,100.00
2023-05-17T05:20:36.866Z,100.00
2023-05-17T05:23:06.043Z,100.00
2023-05-17T05:25:33.305Z,100.00
2023-05-17T05:28:00.372Z,100.00
2023-05-17T05:30:27.601Z,100.00
2023-05-17T05:32:54.674Z,100.00
2023-05-17T05:35:26.469Z,100.00
2023-05-17T05:37:54.617Z,100.00
2023-05-17T05:40:21.649Z,100.00
2023-05-17T05:42:48.456Z,100.00
2023-05-17T05:45:15.558Z,100.00
2023-05-17T05:47:44.162Z,100.00
2023-05-17T05:50:11.460Z,100.00
2023-05-17T05:52:38.364Z,100.00
2023-05-17T05:55:05.891Z,100.00
2023-05-17T05:57:32.752Z,100.00
2023-05-17T05:59:59.712Z,100.00
2023-05-17T06:02:26.833Z,100.00
2023-05-17T06:04:53.641Z,100.00
2023-05-17T06:07:20.625Z,100.00
2023-05-17T06:09:47.345Z,100.00
2023-05-17T06:12:14.145Z,100.00
2023-05-17T06:14:40.941Z,100.00
2023-05-17T06:17:07.735Z,100.00
2023-05-17T06:19:34.570Z,100.00
2023-05-17T06:22:01.434Z,100.00
2023-05-17T06:24:28.252Z,100.00
2023-05-17T06:26:55.120Z,100.00
2023-05-17T06:29:21.999Z,100.00
2023-05-17T06:31:48.936Z,100.00
2023-05-17T06:34:15.956Z,100.00
2023-05-17T06:36:42.828Z,100.00
2023-05-17T06:39:09.711Z,100.00
2023-05-17T06:41:38.290Z,100.00
2023-05-17T06:44:05.222Z,100.00
2023-05-17T06:46:31.940Z,100.00
2023-05-17T06:48:58.937Z,100.00
2023-05-17T06:51:26.194Z,100.00
2023-05-17T06:53:53.396Z,100.00
2023-05-17T06:56:20.217Z,100.00
2023-05-17T06:58:46.984Z,100.00
2023-05-17T07:01:13.872Z,100.00
2023-05-17T07:03:40.786Z,100.00
2023-05-17T07:06:07.786Z,100.00
2023-05-17T07:08:34.545Z,100.00
2023-05-17T07:11:01.423Z,100.00
2023-05-17T07:13:28.180Z,100.00
2023-05-17T07:15:54.925Z,100.00
2023-05-17T07:18:21.753Z,100.00
2023-05-17T07:20:48.585Z,100.00
2023-05-17T07:23:15.358Z,100.00
2023-05-17T07:25:43.196Z,100.00
2023-05-17T07:28:10.134Z,100.00
2023-05-17T07:30:36.911Z,100.00
2023-05-17T07:33:03.846Z,100.00
2023-05-17T07:35:31.175Z,100.00
2023-05-17T07:37:58.154Z,100.00
2023-05-17T07:40:25.048Z,100.00
2023-05-17T07:42:52.067Z,100.00
2023-05-17T07:45:19.003Z,100.00
2023-05-17T07:47:45.834Z,100.00
2023-05-17T07:50:12.794Z,100.00
2023-05-17T07:52:39.656Z,100.00
2023-05-17T07:55:07.230Z,100.00
2023-05-17T07:57:34.129Z,100.00
2023-05-17T08:00:01.059Z,100.00
2023-05-17T08:02:27.906Z,100.00
2023-05-17T08:04:54.830Z,100.00
2023-05-17T08:07:21.697Z,100.00
2023-05-17T08:09:48.428Z,100.00
2023-05-17T08:12:15.222Z,100.00
2023-05-17T08:14:42.168Z,100.00
2023-05-17T08:17:08.986Z,100.00
2023-05-17T08:19:36.462Z,100.00
2023-05-17T08:22:03.690Z,100.00
2023-05-17T08:24:30.475Z,100.00
2023-05-17T08:26:57.408Z,100.00
2023-05-17T08:29:24.276Z,100.00
2023-05-17T08:31:52.555Z,100.00
2023-05-17T08:34:19.366Z,100.00
2023-05-17T08:36:46.238Z,100.00
2023-05-17T08:39:13.018Z,100.00
2023-05-17T08:41:39.953Z,100.00
2023-05-17T08:44:06.727Z,100.00
2023-05-17T08:46:33.773Z,100.00
2023-05-17T08:49:02.130Z,100.00
2023-05-17T08:51:28.986Z,100.00
2023-05-17T08:53:56.761Z,100.00
2023-05-17T08:56:23.715Z,100.00
2023-05-17T08:58:57.245Z,100.00
2023-05-17T09:01:26.347Z,100.00
2023-05-17T09:03:54.578Z,100.00
2023-05-17T09:06:22.389Z,100.00
2023-05-17T09:08:53.192Z,100.00
2023-05-17T09:11:30.740Z,100.00
2023-05-17T09:14:01.546Z,100.00
2023-05-17T09:16:29.696Z,100.00
2023-05-17T09:18:57.222Z,100.00
2023-05-17T09:21:24.735Z,100.00
2023-05-17T09:24:04.748Z,100.00
2023-05-17T09:26:43.240Z,100.00
2023-05-17T09:29:15.150Z,100.00
2023-05-17T09:31:42.284Z,100.00
2023-05-17T09:34:09.463Z,100.00
2023-05-17T09:36:37.504Z,100.00
2023-05-17T09:39:06.193Z,100.00
2023-05-17T09:41:33.901Z,100.00
2023-05-17T09:44:01.458Z,100.00
2023-05-17T09:46:41.381Z,100.00
2023-05-17T09:49:09.322Z,100.00
2023-05-17T09:51:38.791Z,100.00
2023-05-17T09:54:10.364Z,100.00
2023-05-17T09:56:37.283Z,100.00
2023-05-17T09:59:04.947Z,100.00
2023-05-17T10:01:32.167Z,100.00
2023-05-17T10:04:01.212Z,100.00
2023-05-17T10:08:59.952Z,100.00
2023-05-17T10:11:35.709Z,100.00
2023-05-17T10:14:12.637Z,98.35
2023-05-17T10:16:39.585Z,92.15
2023-05-17T10:19:06.411Z,87.26
2023-05-17T10:21:33.321Z,85.33
2023-05-17T10:24:01.031Z,81.90
2023-05-17T10:26:28.418Z,80.92
2023-05-17T10:29:00.765Z,80.14
2023-05-17T10:31:31.433Z,77.84
2023-05-17T10:33:58.252Z,75.98
2023-05-17T10:36:25.065Z,75.90
2023-05-17T10:38:51.993Z,74.80
2023-05-17T10:41:19.965Z,75.54
2023-05-17T10:43:46.966Z,76.68
2023-05-17T10:46:17.953Z,76.69
2023-05-17T10:48:44.812Z,77.27
2023-05-17T10:51:12.013Z,75.30
2023-05-17T10:54:04.388Z,70.65
2023-05-17T10:56:31.642Z,69.05
2023-05-17T10:59:18.486Z,67.37
2023-05-17T11:02:09.879Z,68.77
2023-05-17T11:04:37.404Z,66.46
2023-05-17T11:07:26.589Z,65.81
2023-05-17T11:09:54.273Z,64.71
2023-05-17T11:12:33.602Z,64.76
2023-05-17T11:15:01.191Z,66.06
2023-05-17T11:17:28.777Z,68.59
2023-05-17T11:19:56.363Z,69.77
2023-05-17T11:22:23.800Z,70.85
2023-05-17T11:24:51.335Z,71.19
2023-05-17T11:27:18.679Z,72.84
2023-05-17T11:29:48.396Z,74.98
2023-05-17T11:32:15.118Z,76.72
2023-05-17T11:38:46.612Z,80.18
2023-05-17T11:43:48.912Z,84.17
2023-05-17T11:46:34.874Z,83.40
2023-05-17T11:52:23.392Z,84.56
2023-05-17T11:54:50.640Z,84.36
2023-05-17T11:57:18.124Z,85.03
2023-05-17T11:59:44.861Z,85.24
2023-05-17T12:02:11.566Z,85.38
2023-05-17T12:04:38.756Z,83.47
2023-05-17T12:07:08.369Z,82.13
2023-05-17T12:09:35.441Z,81.89
2023-05-17T12:12:03.991Z,78.59
2023-05-17T12:14:30.664Z,75.56
2023-05-17T12:16:57.372Z,70.56
2023-05-17T12:19:25.163Z,69.03
2023-05-17T12:21:51.976Z,67.86
2023-05-17T12:24:18.769Z,65.37
2023-05-17T12:26:46.047Z,62.15
2023-05-17T12:29:14.076Z,61.99
2023-05-17T12:31:42.414Z,62.00
2023-05-17T12:34:16.820Z,61.80
2023-05-17T12:36:43.607Z,60.20
2023-05-17T12:39:11.409Z,60.31
2023-05-17T12:41:38.723Z,59.43
2023-05-17T12:44:15.143Z,61.03
2023-05-17T12:46:43.265Z,61.44
2023-05-17T12:49:11.138Z,59.87
2023-05-17T12:51:44.166Z,59.31
2023-05-17T12:54:25.336Z,60.50
2023-05-17T12:56:52.083Z,60.01
2023-05-17T12:59:19.213Z,59.47
2023-05-17T13:01:45.911Z,59.85
2023-05-17T13:04:12.954Z,60.36
2023-05-17T13:06:49.044Z,60.87
2023-05-17T13:09:16.393Z,61.28
2023-05-17T13:11:43.085Z,61.81
2023-05-17T13:14:10.322Z,62.72
2023-05-17T13:16:40.428Z,62.61
2023-05-17T13:19:13.808Z,64.04
2023-05-17T13:21:40.857Z,66.53
2023-05-17T13:24:08.895Z,68.16
2023-05-17T13:26:35.686Z,70.24
2023-05-17T13:29:02.365Z,72.25
2023-05-17T13:31:29.033Z,73.91
2023-05-17T13:33:56.500Z,75.88
2023-05-17T13:36:24.129Z,77.28
2023-05-17T13:38:50.937Z,76.44
2023-05-17T13:41:17.887Z,78.37
2023-05-17T13:43:44.557Z,80.19
2023-05-17T13:46:11.420Z,83.12
2023-05-17T13:48:39.784Z,85.96
2023-05-17T13:51:08.654Z,88.43
2023-05-17T13:53:35.350Z,90.58
2023-05-17T13:56:02.098Z,91.75
2023-05-17T13:58:28.805Z,91.19
2023-05-17T14:00:55.497Z,88.63
2023-05-17T14:03:22.380Z,86.79
2023-05-17T14:05:50.757Z,83.22
2023-05-17T14:08:17.700Z,81.39
2023-05-17T14:10:44.539Z,81.36
2023-05-17T14:13:12.188Z,79.53
2023-05-17T14:15:39.806Z,78.92
2023-05-17T14:18:06.729Z,77.74
2023-05-17T14:20:33.570Z,76.46
2023-05-17T14:23:00.615Z,77.73
2023-05-17T14:25:27.277Z,78.19
2023-05-17T14:27:54.117Z,78.65
2023-05-17T14:30:21.150Z,79.59
2023-05-17T14:32:47.853Z,79.91
2023-05-17T14:35:14.790Z,79.66
2023-05-17T14:37:41.574Z,78.23
2023-05-17T14:40:09.206Z,77.98
2023-05-17T14:42:35.977Z,78.19
2023-05-17T14:45:02.690Z,78.38
2023-05-17T14:47:29.373Z,78.28
2023-05-17T14:49:56.377Z,78.31
2023-05-17T14:52:25.063Z,78.27
2023-05-17T14:54:51.842Z,77.49
2023-05-17T14:57:18.735Z,77.93
2023-05-17T14:59:45.486Z,78.22
2023-05-17T15:02:12.286Z,78.84
2023-05-17T15:04:39.077Z,78.28
2023-05-17T15:07:06.368Z,76.90
2023-05-17T15:09:38.073Z,75.83
2023-05-17T15:12:05.166Z,74.68
2023-05-17T15:14:37.383Z,72.71
2023-05-17T15:17:04.510Z,73.40
2023-05-17T15:19:32.327Z,72.74
2023-05-17T15:21:59.310Z,70.41
2023-05-17T15:24:26.116Z,69.79
2023-05-17T15:26:52.839Z,68.92
2023-05-17T15:29:19.546Z,68.41
2023-05-17T15:31:46.460Z,68.22
2023-05-17T15:34:13.266Z,68.26
2023-05-17T15:36:40.205Z,68.94
2023-05-17T15:39:06.996Z,70.02
2023-05-17T15:41:33.778Z,70.70
2023-05-17T15:44:00.779Z,71.51
2023-05-17T15:46:27.520Z,72.97
2023-05-17T15:48:54.285Z,73.67
2023-05-17T15:51:20.987Z,74.32
2023-05-17T15:53:48.282Z,74.80
2023-05-17T15:56:17.488Z,74.66
2023-05-17T15:58:44.201Z,74.76
2023-05-17T16:01:10.962Z,75.52
2023-05-17T16:03:37.878Z,75.58
2023-05-17T16:06:05.021Z,76.60
2023-05-17T16:08:31.786Z,77.78
2023-05-17T16:10:59.785Z,78.34
2023-05-17T16:13:28.218Z,79.10
2023-05-17T16:15:56.126Z,79.77
2023-05-17T16:18:22.937Z,80.12
2023-05-17T16:20:51.567Z,80.78
2023-05-17T16:23:18.203Z,81.37
2023-05-17T16:25:45.084Z,82.17
2023-05-17T16:28:11.726Z,82.56
2023-05-17T16:30:38.418Z,83.55
2023-05-17T16:33:06.895Z,84.23
2023-05-17T16:35:35.071Z,84.65
2023-05-17T16:38:01.780Z,85.34
2023-05-17T16:40:28.922Z,85.91
2023-05-17T16:42:55.870Z,86.40
2023-05-17T16:45:22.593Z,87.14
2023-05-17T16:47:49.282Z,87.66
2023-05-17T16:50:16.217Z,88.04
2023-05-17T16:52:43.208Z,88.33
2023-05-17T16:55:10.096Z,88.91
2023-05-17T16:57:36.965Z,89.38
2023-05-17T17:00:04.019Z,89.66
2023-05-17T17:02:30.821Z,89.80
2023-05-17T17:04:58.549Z,90.24
2023-05-17T17:07:25.207Z,90.51
2023-05-17T17:09:51.865Z,90.80
2023-05-17T17:12:24.538Z,91.19
2023-05-17T17:14:51.829Z,91.39
2023-05-17T17:17:18.481Z,91.74
2023-05-17T17:19:45.142Z,92.31
2023-05-17T17:22:14.198Z,92.77
2023-05-17T17:24:40.964Z,93.23
2023-05-17T17:27:07.706Z,93.80
2023-05-17T17:29:34.512Z,94.24
2023-05-17T17:32:01.422Z,94.68
2023-05-17T17:34:28.101Z,94.94
2023-05-17T17:36:54.797Z,95.28
2023-05-17T17:39:21.509Z,95.39
2023-05-17T17:41:48.230Z,95.23
2023-05-17T17:44:14.923Z,94.94
2023-05-17T17:46:41.725Z,94.82
2023-05-17T17:49:08.445Z,95.07
2023-05-17T17:51:35.403Z,95.21
2023-05-17T17:54:04.914Z,95.52
2023-05-17T17:56:32.825Z,95.74
2023-05-17T17:58:59.870Z,95.78
2023-05-17T18:01:26.973Z,96.06
2023-05-17T18:03:53.705Z,96.59
2023-05-17T18:06:20.383Z,96.81
2023-05-17T18:08:47.066Z,97.14
2023-05-17T18:11:13.758Z,97.49
2023-05-17T18:13:40.521Z,97.53
2023-05-17T18:16:07.207Z,97.45
2023-05-17T18:18:34.101Z,97.64
2023-05-17T18:21:00.854Z,97.73
2023-05-17T18:23:27.596Z,97.81
2023-05-17T18:25:54.245Z,98.15
2023-05-17T18:28:30.073Z,98.52
2023-05-17T18:31:07.638Z,98.79
2023-05-17T18:33:35.187Z,99.36
2023-05-17T18:36:01.936Z,99.92
2023-05-17T18:38:28.888Z,100.00
2023-05-17T18:40:55.891Z,100.00
2023-05-17T18:43:22.525Z,100.00
2023-05-17T18:45:49.183Z,100.00
2023-05-17T18:48:16.113Z,100.00
2023-05-17T18:50:42.946Z,100.00
2023-05-17T18:53:09.957Z,100.00
2023-05-17T18:55:36.689Z,100.00
2023-05-17T18:58:03.338Z,100.00
2023-05-17T19:00:30.152Z,100.00
2023-05-17T19:02:57.044Z,100.00
2023-05-17T19:05:23.798Z,100.00
2023-05-17T19:07:50.420Z,100.00
2023-05-17T19:10:18.374Z,100.00
2023-05-17T19:12:45.764Z,100.00
2023-05-17T19:15:12.597Z,100.00
2023-05-17T19:17:39.422Z,100.00
2023-05-17T19:20:06.566Z,100.00
2023-05-17T19:22:35.543Z,100.00
2023-05-17T19:25:02.359Z,100.00
2023-05-17T19:27:29.006Z,100.00
2023-05-17T19:29:55.941Z,100.00
2023-05-17T19:32:22.963Z,100.00
2023-05-17T19:34:49.867Z,100.00
2023-05-17T19:37:16.729Z,100.00
2023-05-17T19:39:43.516Z,100.00
2023-05-17T19:42:10.345Z,100.00
2023-05-17T19:44:37.319Z,100.00
2023-05-17T19:47:04.052Z,100.00
2023-05-17T19:49:30.688Z,100.00
2023-05-17T19:52:00.722Z,100.00
2023-05-17T19:54:28.052Z,100.00
2023-05-17T19:56:54.777Z,100.00
2023-05-17T19:59:21.596Z,100.00
2023-05-17T20:01:48.509Z,100.00
2023-05-17T20:04:15.211Z,100.00
2023-05-17T20:06:41.914Z,100.00
2023-05-17T20:09:08.682Z,100.00
2023-05-17T20:11:35.558Z,100.00
2023-05-17T20:14:02.196Z,100.00
2023-05-17T20:16:30.934Z,100.00
2023-05-17T20:19:01.132Z,100.00
2023-05-17T20:21:27.942Z,100.00
2023-05-17T20:24:01.266Z,100.00
2023-05-17T20:26:31.857Z,100.00
2023-05-17T20:29:01.661Z,100.00
2023-05-17T20:31:28.333Z,100.00
2023-05-17T20:33:55.073Z,100.00
2023-05-17T20:36:21.842Z,100.00
2023-05-17T20:38:48.561Z,100.00
2023-05-17T20:41:15.999Z,100.00
2023-05-17T20:43:45.307Z,100.00
2023-05-17T20:46:13.201Z,100.00
2023-05-17T20:48:42.746Z,100.00
2023-05-17T20:51:10.168Z,100.00
2023-05-17T20:53:36.905Z,100.00
2023-05-17T20:56:03.614Z,100.00
2023-05-17T20:58:30.508Z,100.00
2023-05-17T21:00:57.571Z,100.00
2023-05-17T21:03:28.266Z,100.00
2023-05-17T21:05:55.291Z,100.00
2023-05-17T21:08:21.963Z,100.00
2023-05-17T21:10:51.619Z,100.00
2023-05-17T21:13:18.378Z,100.00
2023-05-17T21:15:45.150Z,100.00
2023-05-17T21:18:11.935Z,100.00
2023-05-17T21:20:38.953Z,100.00
2023-05-17T21:23:05.739Z,100.00
2023-05-17T21:25:32.630Z,100.00
2023-05-17T21:27:59.682Z,100.00
2023-05-17T21:30:26.451Z,100.00
2023-05-17T21:32:53.211Z,100.00
2023-05-17T21:35:20.081Z,100.00
2023-05-17T21:37:47.243Z,100.00
2023-05-17T21:40:14.651Z,100.00
2023-05-17T21:42:41.711Z,100.00
2023-05-17T21:45:08.588Z,100.00
2023-05-17T21:47:36.099Z,100.00
2023-05-17T21:50:03.552Z,100.00
2023-05-17T21:52:30.537Z,100.00
2023-05-17T21:54:57.189Z,100.00
2023-05-17T21:57:23.848Z,100.00
2023-05-17T21:59:50.768Z,100.00
2023-05-17T22:02:17.594Z,100.00
2023-05-17T22:04:44.346Z,100.00
2023-05-17T22:07:11.292Z,100.00
2023-05-17T22:09:38.152Z,100.00
2023-05-17T22:12:08.419Z,100.00
2023-05-17T22:14:36.448Z,100.00
2023-05-17T22:17:09.149Z,100.00
2023-05-17T22:19:40.713Z,100.00
2023-05-17T22:22:07.854Z,100.00
2023-05-17T22:24:34.585Z,100.00
2023-05-17T22:27:01.479Z,100.00
2023-05-17T22:29:28.158Z,100.00
2023-05-17T22:31:54.865Z,100.00
2023-05-17T22:34:21.950Z,100.00
2023-05-17T22:36:48.878Z,100.00
2023-05-17T22:39:15.587Z,100.00
2023-05-17T22:41:42.222Z,100.00
2023-05-17T22:44:08.908Z,100.00
2023-05-17T22:46:35.987Z,100.00
2023-05-17T22:49:02.697Z,100.00
2023-05-17T22:51:30.032Z,100.00
2023-05-17T22:53:57.028Z,100.00
2023-05-17T22:56:23.695Z,100.00
2023-05-17T22:58:50.421Z,100.00
2023-05-17T23:01:17.119Z,100.00
2023-05-17T23:03:43.811Z,100.00
2023-05-17T23:06:10.479Z,100.00
2023-05-17T23:08:37.131Z,100.00
2023-05-17T23:11:04.875Z,100.00
2023-05-17T23:13:31.563Z,100.00
2023-05-17T23:15:58.231Z,100.00
2023-05-17T23:18:27.468Z,100.00
2023-05-17T23:20:54.360Z,100.00
2023-05-17T23:23:23.112Z,100.00
2023-05-17T23:25:50.720Z,100.00
2023-05-17T23:28:18.682Z,100.00
2023-05-17T23:30:48.703Z,100.00
2023-05-17T23:33:16.492Z,100.00
2023-05-17T23:35:43.145Z,100.00
2023-05-17T23:38:09.803Z,100.00
2023-05-17T23:40:37.165Z,100.00
2023-05-17T23:43:04.077Z,100.00
2023-05-17T23:45:31.243Z,100.00
2023-05-17T23:48:00.444Z,100.00
2023-05-17T23:50:27.357Z,100.00
2023-05-17T23:52:54.314Z,100.00
2023-05-17T23:55:22.500Z,100.00
2023-05-17T23:57:49.395Z,100.00
